Pagrindinis puslapis
METAR-TAF:

METAR-TAF

Oro uostai :

Breša-Ghedi, Italija

platuma: 45-25N, ilguma: 010-17E, Aukštis: 102 m

Dabartinis oras

Ataskaita buvo paskelbta 1 valandą ir 18 minutes, ne 02:55 UTC
Vėjas 5 kt iš Vakarų
Temperatūra 5°C
Drėgmė 93%
Slėgis 1021 hPa
Matomumas: 4000 m
Su prošvaistėmis ne aukštis 3000 ft
lietus, rūkana

METAR: LIPL 180255Z 28005KT 4000 -RA BR BKN030 05/04 Q1021 RMK OVC SCT090 VIS MIN 4000 WIND THR31 /////KT WIND THR13 26003KT GRN

Laikas: 05:13 (04:13 UTC)

Prognozė

Ataskaita buvo paskelbta 2 valandos ir 13 minutes, ne 02:00 UTC
Prognozė galioja nuo 18 metu 03 UTC su 18 metu 12 UTC
Vėjas 5 kt iš Vakarų/Šiaurės Vakarų
Matomumas: 3000 m
Su prošvaistėmis ne aukštis 3000 ft
lietus, rūkana
Tikimybė 40% :
Laikinai
nuo 18 metu 04 UTC su 18 metu 08 UTC
Matomumas: 1500 m
Su prošvaistėmis ne aukštis 1500 ft
lietus, rūkana

TAF: LIPL 180200Z 1803/1812 30005KT 3000 RA BR BKN030 PROB40 TEMPO 1804/1808 1500 RA BR BKN015

Orai ataskaitas ir orų prognozės (METAR, TAF).

turimą stotys yra geltonos ir raudonos taškus žemėlapyje.

Perkelti pele per norėdami pamatyti stoties vardą.

Tada spustelėkite, norėdami matyti oro stebėjimo ir prognozės.

Norėdami pakeisti žemėlapį: spustelėkite ant žalios mygtukų su juodo kryžiaus žemyn,; žalią mygtuką su brūkšneliu, jei norite nutolinti; arba žalių rodyklių gretimoms žemėlapius.


METAR-TAF: